Meteo Giornale » Osservazioni meteo Francia » Chambery-Aix-Les-Bains

ore: 23:30 - Osservazioni Meteo Chambery-Aix-Les-Bains
Lat. 45° 39' N Lon. 5° 53' E Alt. 235 metri s.l.m.

sereno

16 °C

Sereno

Temp. 24 Ore

12 °C

28 °C

Nord

3.7 Km/h

Dew point 14 °C

Umidità 87 %

Visibilità  10 Km

Il sole sorge alle ore 06:58

Il sole tramonta alle ore 20:13

Data e Ora Cielo e Fenomeni T °C DP °C Um. % Pres. hPa Vis. km Vento km/h
Ieri h: 23:30 sereno Sereno 16 14 87 1021 10 N 3.7
Ieri h: 23:00 sereno Sereno 17 14 82 1020 10 N 1.8
Ieri h: 22:30 sereno Sereno 17 14 82 1020 10 N 1.8
Ieri h: 22:00 sereno Sereno 18 14 77 1020 10 N 0
Ieri h: 21:30 sereno Sereno 19 14 72 1020 10 N 3.7
Ieri h: 21:00 sereno Sereno 19 15 77 1019 10 N 1.8
Ieri h: 20:30 sereno Sereno 20 14 68 1019 3 N 5.5
Ieri h: 20:00 sereno Sereno 22 16 68 1019 10 N 0
Ieri h: 19:30 sereno Sereno 24 16 60 1019 10 N 3.7
Ieri h: 19:00 sereno Sereno 25 14 50 1019 10 O/NO 7.4
Ieri h: 18:30 sereno Sereno 28 14 42 1019 10 N 7.4
Ieri h: 18:00 sereno Sereno 28 13 39 1019 10 N 5.5
Ieri h: 17:30 sereno Sereno 28 12 37 1019 10 N 3.7
Ieri h: 17:00 sereno Sereno 28 14 42 1019 10 N 5.5
Ieri h: 16:30 sereno Sereno 28 13 39 1020 10 N/NE 7.4
Ieri h: 16:00 sereno Sereno 27 13 42 1020 10 N/NE 9.3
Ieri h: 15:30 sereno Sereno 27 13 42 1020 10 N 7.4
Ieri h: 15:00 sereno Sereno 27 15 47 1020 10 N/NE 9.3
Ieri h: 14:30 sereno Sereno 26 14 47 1020 10 N 9.3
Ieri h: 14:00 sereno Sereno 26 15 50 1021 10 N/NO 9.3
Ieri h: 13:30 sereno Sereno 25 14 50 1021 10 N 9.3
Ieri h: 13:00 sereno Sereno 25 15 53 1021 10 N 9.3
Ieri h: 12:30 sereno Sereno 24 14 53 1022 10 N 9.3
Ieri h: 12:00 sereno Sereno 24 13 50 1022 10 N 7.4
Ieri h: 11:30 sereno Sereno 22 13 56 1022 10 N 3.7
Ieri h: 11:00 sereno Sereno 22 14 60 1022 10 N 3.7
Ieri h: 10:30 sereno Sereno 21 14 64 1022 10 N 3.7
Ieri h: 10:00 sereno Sereno 19 14 72 1022 10 N 5.5
Ieri h: 09:30 sereno Sereno 19 14 72 1022 10 N 3.7
Ieri h: 09:00 sereno Sereno 17 13 77 1022 10 N 3.7
Ieri h: 08:30 sereno Sereno 14 13 93 1022 10 N 3.7
Ieri h: 08:00 sereno Sereno 13 12 93 1022 10 N 0
Ieri h: 07:30 sereno Sereno 13 12 93 1022 10 N 3.7
Ieri h: 07:00 sereno Sereno 12 12 100 1022 10 N 5.5
Ieri h: 06:30 sereno Sereno 12 12 100 1022 10 N 3.7
Ieri h: 06:00 sereno Sereno 13 12 93 1022 10 N 3.7
Ieri h: 05:30 sereno Sereno 13 13 100 1022 10 N 0
Ieri h: 05:00 sereno Sereno 13 12 93 1022 10 N 3.7
Ieri h: 04:30 sereno Sereno 13 13 100 1022 10 N 1.8
Ieri h: 04:00 sereno Sereno 14 12 87 1022 10 N 3.7
Ieri h: 03:30 sereno Sereno 14 13 93 1022 10 N 3.7
Ieri h: 03:00 sereno Sereno 15 13 87 1022 10 N 3.7
Ieri h: 02:30 sereno Sereno 15 13 87 1022 10 N 3.7
Ieri h: 02:00 sereno Sereno 15 13 87 1022 10 N 5.5
Ieri h: 01:30 sereno Sereno 15 13 87 1022 10 N 5.5
Ieri h: 01:00 sereno Sereno 15 13 87 1022 10 S 7.4